Time;durP1;ratioP1;P1;durP2;ratioP2;P2;SDS_P1;SDS_P2;PMS_P1;PMS_P2;Temp;Humidity;BMP_temperature;BMP_pressure;BME280_temperature;BME280_humidity;BME280_pressure;Samples;Min_cycle;Max_cycle;Signal;HPM_P1;HPM_P2
2023/01/09 00:00:51;;;;;;;16.48;9.40;;;;;;;6.73;100.00;98061.34;4457877;32;20088;-92
2023/01/09 00:03:19;;;;;;;20.33;10.00;;;;;;;6.76;100.00;98061.09;4444337;32;20609;-92
2023/01/09 00:05:46;;;;;;;18.90;9.98;;;;;;;6.74;100.00;98068.22;4458285;32;20170;-92
2023/01/09 00:08:13;;;;;;;19.17;9.27;;;;;;;6.69;100.00;98070.34;4458026;32;20457;-93
2023/01/09 00:10:40;;;;;;;18.65;9.95;;;;;;;6.65;100.00;98069.81;4458147;32;20136;-93
2023/01/09 00:13:11;;;;;;;18.58;10.18;;;;;;;6.75;100.00;98070.69;4457817;32;20084;-92
2023/01/09 00:15:40;;;;;;;17.52;9.63;;;;;;;6.68;100.00;98066.13;4457986;32;20081;-92
2023/01/09 00:18:07;;;;;;;18.10;9.27;;;;;;;6.79;100.00;98058.22;4457862;32;20705;-92
2023/01/09 00:20:35;;;;;;;19.15;10.05;;;;;;;6.73;100.00;98067.38;4457637;32;20130;-92
2023/01/09 00:23:02;;;;;;;18.75;9.32;;;;;;;6.71;100.00;98051.06;4443039;32;20646;-92
2023/01/09 00:25:29;;;;;;;20.10;8.88;;;;;;;6.83;100.00;98061.38;4441895;32;20473;-92
2023/01/09 00:27:56;;;;;;;16.73;9.95;;;;;;;6.78;100.00;98059.16;4442454;32;20165;-92
2023/01/09 00:30:24;;;;;;;14.55;8.63;;;;;;;6.85;100.00;98059.47;4441889;32;20093;-92
2023/01/09 00:32:53;;;;;;;17.58;8.35;;;;;;;6.84;100.00;98053.44;4440804;32;20155;-93
2023/01/09 00:35:22;;;;;;;15.05;8.27;;;;;;;7.00;100.00;98058.16;4439124;32;20097;-92
2023/01/09 00:37:49;;;;;;;15.27;7.97;;;;;;;7.08;100.00;98049.69;4425630;32;20093;-92
2023/01/09 00:40:17;;;;;;;17.00;8.85;;;;;;;7.07;100.00;98053.22;4439242;32;20104;-92
2023/01/09 00:42:47;;;;;;;16.45;8.68;;;;;;;7.04;100.00;98053.50;4439472;32;20097;-93
2023/01/09 00:45:20;;;;;;;18.62;8.43;;;;;;;7.12;100.00;98051.06;4439294;32;20136;-92
2023/01/09 00:47:50;;;;;;;16.40;8.25;;;;;;;7.11;100.00;98049.41;4425653;32;20109;-92
2023/01/09 00:50:25;;;;;;;12.68;7.43;;;;;;;7.22;100.00;98040.66;4425102;32;20161;-93
2023/01/09 00:52:53;;;;;;;18.92;8.70;;;;;;;7.29;100.00;98042.59;4425548;32;20097;-93
2023/01/09 00:55:20;;;;;;;19.65;8.18;;;;;;;7.38;100.00;98045.38;4439082;32;20482;-93
2023/01/09 00:57:48;;;;;;;17.80;9.02;;;;;;;7.42;100.00;98044.16;4439426;32;20144;-92
2023/01/09 01:00:16;;;;;;;16.12;8.80;;;;;;;7.41;100.00;98045.09;4439052;32;20152;-92
2023/01/09 01:02:43;;;;;;;16.33;8.63;;;;;;;7.31;100.00;98042.47;4439168;32;20159;-93
2023/01/09 01:07:56;;;;;;;16.92;8.05;;;;;;;7.38;100.00;98034.94;4439088;32;20583;-92
2023/01/09 01:10:24;;;;;;;17.15;7.80;;;;;;;7.31;100.00;98034.66;4449722;32;20109;-92
2023/01/09 01:12:51;;;;;;;14.27;8.48;;;;;;;7.34;100.00;98033.56;4440542;32;20097;-92
2023/01/09 01:15:20;;;;;;;15.85;7.43;;;;;;;7.39;100.00;98031.41;4454492;32;20094;-92
2023/01/09 01:17:47;;;;;;;14.30;7.05;;;;;;;7.49;100.00;98032.22;4454555;32;20097;-92
2023/01/09 01:20:16;;;;;;;14.00;7.37;;;;;;;7.50;100.00;98033.87;4454352;32;20195;-93
2023/01/09 01:22:44;;;;;;;14.85;7.53;;;;;;;7.49;100.00;98032.22;4441779;32;20149;-92
2023/01/09 01:25:13;;;;;;;14.65;8.00;;;;;;;7.52;100.00;98016.28;4438914;32;20450;-93
2023/01/09 01:27:41;;;;;;;17.77;9.50;;;;;;;7.61;100.00;98020.69;4439032;32;20442;-92
2023/01/09 01:30:12;;;;;;;13.95;7.72;;;;;;;7.66;100.00;98019.47;4438838;32;20191;-92
2023/01/09 01:32:39;;;;;;;16.00;8.27;;;;;;;7.85;100.00;98018.66;4438912;32;20134;-92
2023/01/09 01:35:07;;;;;;;16.40;8.32;;;;;;;7.90;100.00;98004.25;4439013;32;20527;-92
2023/01/09 01:37:35;;;;;;;17.62;8.30;;;;;;;7.74;100.00;98002.19;4439137;32;20113;-92
2023/01/09 01:40:04;;;;;;;15.25;7.25;;;;;;;7.80;100.00;97993.00;4438901;32;20112;-92
2023/01/09 01:42:32;;;;;;;15.82;8.15;;;;;;;7.85;100.00;97997.78;4424826;32;20469;-93
2023/01/09 01:45:05;;;;;;;19.17;8.30;;;;;;;7.78;100.00;98005.31;4438361;32;20141;-92
2023/01/09 01:47:58;;;;;;;13.23;7.85;;;;;;;7.72;100.00;98000.66;4438903;32;20097;-92
2023/01/09 01:50:35;;;;;;;15.48;7.50;;;;;;;7.76;100.00;97986.41;4424875;32;20153;-93
2023/01/09 01:53:05;;;;;;;15.13;8.80;;;;;;;7.79;100.00;97986.13;4438892;32;20081;-92
2023/01/09 01:55:35;;;;;;;15.02;8.40;;;;;;;7.61;100.00;97986.00;4425162;32;20117;-92
2023/01/09 01:58:04;;;;;;;16.75;8.65;;;;;;;7.51;100.00;97983.41;4438760;32;20160;-92
2023/01/09 02:00:35;;;;;;;16.42;8.25;;;;;;;7.56;100.00;97977.78;4438385;32;20140;-92
2023/01/09 02:03:03;;;;;;;18.65;9.15;;;;;;;7.71;100.00;97973.78;4424834;32;20176;-92
2023/01/09 02:05:30;;;;;;;17.65;8.75;;;;;;;7.75;100.00;97974.31;4425006;32;20632;-93
2023/01/09 02:07:57;;;;;;;17.42;8.32;;;;;;;7.63;100.00;97961.44;4438729;32;20128;-93
2023/01/09 02:10:24;;;;;;;14.07;7.32;;;;;;;7.69;100.00;97961.84;4449690;32;20097;-92
2023/01/09 02:12:52;;;;;;;15.50;8.23;;;;;;;7.80;100.00;97954.69;4454132;32;20117;-92
2023/01/09 02:15:19;;;;;;;16.08;9.02;;;;;;;7.72;100.00;97949.38;4454226;32;20100;-93
2023/01/09 02:17:58;;;;;;;18.50;9.10;;;;;;;7.71;100.00;97947.72;4454183;32;20168;-93
2023/01/09 02:20:42;;;;;;;15.65;9.05;;;;;;;7.50;100.00;97947.03;4453991;32;20117;-92
2023/01/09 02:23:22;;;;;;;17.37;9.02;;;;;;;7.40;100.00;97937.44;4438688;32;20107;-92
2023/01/09 02:26:18;;;;;;;18.37;7.97;;;;;;;7.44;100.00;97935.37;4424694;32;20787;-93
2023/01/09 02:29:10;;;;;;;18.23;9.02;;;;;;;7.45;100.00;97937.03;4424693;32;20582;-93
2023/01/09 02:31:40;;;;;;;16.23;8.07;;;;;;;7.34;100.00;97937.16;4438323;32;20093;-93
2023/01/09 02:34:10;;;;;;;16.15;7.90;;;;;;;7.32;100.00;97936.47;4424833;32;20081;-93
2023/01/09 02:36:48;;;;;;;17.55;8.52;;;;;;;7.42;100.00;97934.72;4438429;32;20171;-92
2023/01/09 02:39:33;;;;;;;15.20;7.93;;;;;;;7.32;100.00;97937.31;4438622;32;20146;-93
2023/01/09 02:42:16;;;;;;;18.55;9.13;;;;;;;7.38;100.00;97935.94;4438436;32;20093;-93
2023/01/09 02:44:43;;;;;;;17.87;8.60;;;;;;;7.53;100.00;97934.56;4438559;32;20139;-92
2023/01/09 02:47:16;;;;;;;20.42;9.27;;;;;;;7.36;100.00;97924.81;4438209;32;20163;-93
2023/01/09 02:49:49;;;;;;;16.40;8.85;;;;;;;7.50;100.00;97919.19;4438356;32;20097;-92
2023/01/09 02:52:36;;;;;;;14.27;7.75;;;;;;;7.58;100.00;97927.13;4424422;32;20107;-92
2023/01/09 02:55:16;;;;;;;15.30;8.27;;;;;;;7.49;100.00;97914.94;4438184;32;20141;-92
2023/01/09 02:58:09;;;;;;;18.33;9.25;;;;;;;7.68;100.00;97908.06;4437383;32;20575;-93
2023/01/09 03:00:58;;;;;;;18.73;8.77;;;;;;;7.61;100.00;97902.56;4424337;32;20519;-93
2023/01/09 03:03:26;;;;;;;14.93;7.95;;;;;;;7.63;100.00;97888.44;4438275;32;20451;-93
2023/01/09 03:06:19;;;;;;;17.42;8.63;;;;;;;7.69;100.00;97891.44;4438257;32;20162;-92
2023/01/09 03:08:51;;;;;;;15.60;8.00;;;;;;;7.72;100.00;97891.16;4374983;32;20527;-92
2023/01/09 03:11:20;;;;;;;15.88;8.57;;;;;;;7.59;100.00;97888.88;4374998;32;20173;-92
2023/01/09 03:13:54;;;;;;;20.00;9.45;;;;;;;7.60;100.00;97891.34;4374933;32;20149;-92
2023/01/09 03:16:32;;;;;;;18.75;9.02;;;;;;;7.58;100.00;97889.81;4374944;32;20181;-92
2023/01/09 03:19:00;;;;;;;15.45;8.02;;;;;;;7.54;100.00;97880.63;4374971;32;20223;-93
2023/01/09 03:21:27;;;;;;;18.15;8.50;;;;;;;7.51;100.00;97881.75;4378999;32;20139;-93
2023/01/09 03:23:57;;;;;;;17.30;8.73;;;;;;;7.50;100.00;97887.09;4389755;32;20472;-92
2023/01/09 03:26:25;;;;;;;16.00;7.65;;;;;;;7.53;100.00;97876.41;4389657;32;20527;-92
2023/01/09 03:28:52;;;;;;;20.05;8.88;;;;;;;7.58;100.00;97887.22;4389972;32;20208;-92
2023/01/09 03:31:19;;;;;;;16.62;9.60;;;;;;;7.63;100.00;97883.25;4389529;32;20114;-92
2023/01/09 03:33:47;;;;;;;20.30;10.07;;;;;;;7.54;100.00;97876.25;4389923;32;20120;-92
2023/01/09 03:36:15;;;;;;;17.15;9.00;;;;;;;7.65;100.00;97880.50;4389749;32;20189;-93
2023/01/09 03:38:42;;;;;;;18.58;9.73;;;;;;;7.57;100.00;97883.81;4389614;32;20110;-92
2023/01/09 03:41:10;;;;;;;18.92;9.55;;;;;;;7.67;100.00;97881.16;4389527;32;20187;-93
2023/01/09 03:43:37;;;;;;;20.35;8.80;;;;;;;7.55;100.00;97875.28;4389643;32;20157;-92
2023/01/09 03:46:04;;;;;;;20.35;9.55;;;;;;;7.63;100.00;97862.38;4424189;32;20162;-92
2023/01/09 03:48:32;;;;;;;18.17;9.60;;;;;;;7.62;100.00;97868.56;4452627;32;20101;-92
2023/01/09 03:50:59;;;;;;;19.08;10.07;;;;;;;7.73;100.00;97867.56;4452791;32;20164;-93
2023/01/09 03:53:27;;;;;;;18.25;9.88;;;;;;;7.65;100.00;97864.84;4452954;32;20098;-92
2023/01/09 03:55:56;;;;;;;24.73;10.27;;;;;;;7.45;100.00;97864.06;4452889;32;20119;-92
2023/01/09 03:58:24;;;;;;;20.08;9.77;;;;;;;7.50;100.00;97872.28;4452996;32;20547;-92
2023/01/09 04:00:56;;;;;;;21.70;10.23;;;;;;;7.58;100.00;97863.75;4452805;32;20719;-92
2023/01/09 04:03:24;;;;;;;20.93;10.30;;;;;;;7.54;100.00;97873.66;4452920;32;20115;-92
2023/01/09 04:05:51;;;;;;;19.27;10.02;;;;;;;7.60;100.00;97859.22;4452933;32;20534;-92
2023/01/09 04:08:18;;;;;;;18.05;9.45;;;;;;;7.42;100.00;97859.13;4453662;32;20102;-92
2023/01/09 04:10:48;;;;;;;21.77;10.15;;;;;;;7.32;100.00;97847.91;4441484;32;20097;-92
2023/01/09 04:13:15;;;;;;;19.92;10.00;;;;;;;7.37;100.00;97851.72;4439392;32;20840;-93
2023/01/09 04:15:43;;;;;;;25.98;10.60;;;;;;;7.48;100.00;97848.16;4439564;32;20093;-92
2023/01/09 04:18:10;;;;;;;19.55;10.35;;;;;;;7.39;100.00;97847.19;4439361;32;20451;-92
2023/01/09 04:20:37;;;;;;;23.70;10.32;;;;;;;7.42;100.00;97854.75;4439314;32;20505;-92
2023/01/09 04:23:04;;;;;;;22.95;10.90;;;;;;;7.55;100.00;97866.66;4454146;32;20101;-93
2023/01/09 04:25:32;;;;;;;18.52;9.60;;;;;;;7.54;100.00;97871.03;4454821;32;20097;-92
2023/01/09 04:27:59;;;;;;;21.52;10.60;;;;;;;7.45;100.00;97864.06;4454963;32;20462;-93
2023/01/09 04:30:26;;;;;;;19.20;11.45;;;;;;;7.41;100.00;97871.31;4454784;32;20484;-93
2023/01/09 04:32:53;;;;;;;24.37;10.82;;;;;;;7.34;100.00;97869.41;4454567;32;20101;-92
2023/01/09 04:35:21;;;;;;;19.33;10.73;;;;;;;7.26;100.00;97873.53;4454836;32;20089;-93
2023/01/09 04:37:48;;;;;;;21.40;10.77;;;;;;;7.40;100.00;97871.47;4454875;32;20472;-92
2023/01/09 04:40:15;;;;;;;22.90;10.70;;;;;;;7.38;100.00;97876.81;4455063;32;20170;-93
2023/01/09 04:42:43;;;;;;;21.52;10.80;;;;;;;7.35;100.00;97860.66;4454729;32;20314;-93
2023/01/09 04:45:10;;;;;;;22.33;10.57;;;;;;;7.40;100.00;97867.09;4454574;32;20146;-92
2023/01/09 04:47:38;;;;;;;18.75;10.57;;;;;;;7.43;100.00;97855.56;4454713;32;20101;-93
2023/01/09 04:50:05;;;;;;;19.85;10.60;;;;;;;7.32;100.00;97858.31;4454801;32;20603;-93
2023/01/09 04:52:32;;;;;;;19.17;10.27;;;;;;;7.36;100.00;97857.06;4454464;32;20097;-92
2023/01/09 04:54:59;;;;;;;18.40;10.38;;;;;;;7.45;100.00;97859.66;4454610;32;20092;-93
2023/01/09 04:57:27;;;;;;;22.92;11.77;;;;;;;7.42;100.00;97857.34;4454609;32;20351;-92
2023/01/09 04:59:54;;;;;;;21.23;10.40;;;;;;;7.29;100.00;97851.59;4440336;32;20226;-92
2023/01/09 05:02:21;;;;;;;19.50;10.13;;;;;;;7.30;100.00;97863.69;4436617;32;20164;-93
2023/01/09 05:04:48;;;;;;;22.25;10.20;;;;;;;7.29;100.00;97851.59;4440413;32;20169;-94
2023/01/09 05:07:15;;;;;;;20.80;10.73;;;;;;;7.26;100.00;97860.50;4440133;32;20097;-93
2023/01/09 05:09:43;;;;;;;17.70;10.23;;;;;;;7.24;100.00;97854.63;4439953;32;20105;-94
2023/01/09 05:12:10;;;;;;;22.05;10.63;;;;;;;7.27;100.00;97850.94;4438063;32;20124;-93
2023/01/09 05:14:37;;;;;;;20.62;10.38;;;;;;;7.28;100.00;97848.19;4445192;32;20089;-93
2023/01/09 05:17:05;;;;;;;20.98;10.93;;;;;;;7.33;100.00;97852.13;4441060;32;20141;-93
2023/01/09 05:19:33;;;;;;;20.73;10.43;;;;;;;7.20;100.00;97840.22;4450474;32;20109;-93
2023/01/09 05:22:00;;;;;;;18.65;10.45;;;;;;;7.17;100.00;97834.47;4439412;32;20105;-94
2023/01/09 05:24:28;;;;;;;26.62;11.27;;;;;;;7.31;100.00;97838.44;4447931;32;20140;-93
2023/01/09 05:26:55;;;;;;;19.05;10.93;;;;;;;7.25;100.00;97838.03;4454953;32;20121;-93
2023/01/09 05:29:22;;;;;;;22.27;11.63;;;;;;;7.33;100.00;97841.72;4454124;32;20109;-94
2023/01/09 05:31:51;;;;;;;21.15;11.48;;;;;;;7.35;100.00;97843.22;4454946;32;20420;-94
2023/01/09 05:34:19;;;;;;;21.35;10.70;;;;;;;7.30;100.00;97850.66;4454760;32;20096;-92
2023/01/09 05:36:46;;;;;;;18.35;9.93;;;;;;;7.27;100.00;97851.75;4438554;32;20097;-94
2023/01/09 05:39:14;;;;;;;24.98;11.63;;;;;;;7.32;100.00;97853.94;4441764;32;20117;-95
2023/01/09 05:41:41;;;;;;;23.30;11.80;;;;;;;7.22;100.00;97856.56;4450097;32;20108;-94
2023/01/09 05:44:08;;;;;;;20.12;11.20;;;;;;;7.05;100.00;97852.84;4439839;32;21168;-92
2023/01/09 05:46:36;;;;;;;23.40;10.32;;;;;;;7.13;100.00;97844.37;4439433;32;20102;-93
2023/01/09 05:49:03;;;;;;;23.80;11.27;;;;;;;7.09;100.00;97843.78;4438353;32;20184;-94
2023/01/09 05:51:30;;;;;;;19.60;10.35;;;;;;;7.02;100.00;97842.69;4415931;32;20109;-94
2023/01/09 05:53:58;;;;;;;20.58;11.30;;;;;;;7.03;100.00;97843.53;4437735;32;20089;-94
2023/01/09 05:56:25;;;;;;;21.45;10.48;;;;;;;7.11;100.00;97841.06;4444628;32;20123;-94
2023/01/09 05:58:53;;;;;;;20.20;9.88;;;;;;;7.16;100.00;97846.69;4441493;32;20109;-93
2023/01/09 06:01:20;;;;;;;27.35;11.48;;;;;;;7.13;100.00;97849.56;4425441;32;20168;-93
2023/01/09 06:03:50;;;;;;;23.10;11.07;;;;;;;7.16;100.00;97851.91;4426583;32;20478;-93
2023/01/09 06:06:17;;;;;;;29.48;12.15;;;;;;;7.17;100.00;97850.91;4441576;32;20096;-94
2023/01/09 06:08:44;;;;;;;19.35;10.35;;;;;;;7.20;100.00;97852.44;4437188;32;20128;-95
2023/01/09 06:11:12;;;;;;;23.62;11.32;;;;;;;7.17;100.00;97853.53;4439600;32;20727;-92
2023/01/09 06:13:39;;;;;;;20.37;10.30;;;;;;;7.17;100.00;97858.72;4450574;32;20484;-95
2023/01/09 06:16:08;;;;;;;21.20;10.52;;;;;;;7.07;100.00;97855.31;4433248;32;20174;-96
2023/01/09 06:18:36;;;;;;;19.85;9.32;;;;;;;7.12;100.00;97860.94;4418023;32;20162;-95
2023/01/09 06:28:05;;;;;;;22.35;11.18;;;;;;;7.01;100.00;97861.91;4463248;26;20163;-70
2023/01/09 06:30:33;;;;;;;23.85;11.88;;;;;;;6.83;100.00;97869.56;4447474;32;20579;-69
2023/01/09 06:33:00;;;;;;;24.60;12.32;;;;;;;6.81;100.00;97870.66;4446091;32;20078;-70
2023/01/09 06:35:27;;;;;;;22.13;10.95;;;;;;;6.66;100.00;97862.41;4444760;32;20567;-70
2023/01/09 06:37:54;;;;;;;23.52;11.80;;;;;;;6.74;100.00;97866.00;4448170;32;20208;-70
2023/01/09 06:40:21;;;;;;;21.83;11.30;;;;;;;6.66;100.00;97862.41;4438130;32;20161;-70
2023/01/09 06:42:48;;;;;;;21.35;11.32;;;;;;;6.66;100.00;97876.25;4444999;32;20117;-70
2023/01/09 06:45:16;;;;;;;26.67;12.48;;;;;;;6.79;100.00;97859.56;4446967;32;20152;-70
2023/01/09 06:47:43;;;;;;;22.10;12.05;;;;;;;6.62;100.00;97864.47;4442481;32;20125;-69
2023/01/09 06:50:11;;;;;;;24.48;12.40;;;;;;;6.61;100.00;97864.59;4449894;32;20454;-68
2023/01/09 06:52:38;;;;;;;23.77;12.23;;;;;;;6.69;100.00;97864.75;4450614;32;20089;-68
2023/01/09 06:55:07;;;;;;;27.60;12.55;;;;;;;6.63;100.00;97860.06;4444260;32;20119;-69
2023/01/09 06:57:34;;;;;;;24.23;13.23;;;;;;;6.84;100.00;97857.34;4439346;32;20106;-69
2023/01/09 07:00:02;;;;;;;23.48;11.40;;;;;;;6.77;100.00;97864.06;4442461;32;20207;-69
2023/01/09 07:02:29;;;;;;;25.83;13.35;;;;;;;6.71;100.00;97855.03;4447708;32;20150;-67
2023/01/09 07:04:56;;;;;;;32.65;14.43;;;;;;;6.66;100.00;97852.84;4442704;32;20115;-69
2023/01/09 07:07:23;;;;;;;29.00;13.45;;;;;;;6.44;100.00;97853.06;4446460;32;20109;-68
2023/01/09 07:09:50;;;;;;;33.60;15.60;;;;;;;6.54;100.00;97857.34;4445963;32;20145;-68
2023/01/09 07:12:17;;;;;;;36.55;15.70;;;;;;;6.60;100.00;97858.59;4447716;32;20394;-69
2023/01/09 07:14:45;;;;;;;40.95;16.10;;;;;;;6.50;100.00;97857.75;4443536;32;20187;-68
2023/01/09 07:17:12;;;;;;;28.62;14.18;;;;;;;6.43;100.00;97851.41;4448769;32;20131;-68
2023/01/09 07:19:39;;;;;;;31.65;14.95;;;;;;;6.44;100.00;97855.66;4450149;32;20592;-68
2023/01/09 07:22:07;;;;;;;33.75;14.02;;;;;;;6.49;100.00;97856.91;4445744;32;20146;-69
2023/01/09 07:24:34;;;;;;;26.42;13.38;;;;;;;6.48;100.00;97857.88;4436611;32;20097;-66
2023/01/09 07:27:01;;;;;;;27.02;14.07;;;;;;;6.57;100.00;97858.81;4441765;32;20105;-68
2023/01/09 07:29:29;;;;;;;24.27;12.10;;;;;;;6.71;100.00;97860.25;4442462;32;20152;-69
2023/01/09 07:31:56;;;;;;;26.98;13.60;;;;;;;6.70;100.00;97842.97;4439984;32;20452;-67
2023/01/09 07:34:23;;;;;;;29.45;14.65;;;;;;;6.70;100.00;97842.97;4433710;32;20193;-67
2023/01/09 07:36:51;;;;;;;26.20;13.23;;;;;;;6.75;100.00;97845.97;4443094;32;20494;-68
2023/01/09 07:39:18;;;;;;;26.87;13.75;;;;;;;6.72;100.00;97825.44;4445492;32;20403;-68
2023/01/09 07:41:45;;;;;;;26.45;12.48;;;;;;;6.82;100.00;97831.47;4450658;32;20152;-68
2023/01/09 07:44:14;;;;;;;23.85;11.18;;;;;;;6.78;100.00;97827.47;4446627;32;20093;-69
2023/01/09 07:46:41;;;;;;;26.77;11.95;;;;;;;6.65;100.00;97824.34;4448556;32;20887;-68
2023/01/09 07:49:08;;;;;;;27.13;12.52;;;;;;;6.63;100.00;97826.25;4449947;32;20089;-70
2023/01/09 07:51:38;;;;;;;25.10;12.93;;;;;;;6.65;100.00;97813.94;4448761;32;20187;-69
2023/01/09 07:54:05;;;;;;;28.38;12.50;;;;;;;6.67;100.00;97812.81;4447025;32;20096;-68
2023/01/09 07:56:32;;;;;;;26.20;13.65;;;;;;;6.63;100.00;97819.28;4452123;32;20142;-67
2023/01/09 07:58:59;;;;;;;21.52;11.00;;;;;;;6.56;100.00;97821.59;4449744;32;20211;-67
2023/01/09 08:01:26;;;;;;;22.92;11.75;;;;;;;6.59;100.00;97815.28;4449534;32;20111;-69
2023/01/09 08:03:54;;;;;;;26.27;13.45;;;;;;;6.60;100.00;97808.31;4446265;32;20127;-68
2023/01/09 08:06:21;;;;;;;30.80;12.00;;;;;;;6.50;100.00;97811.72;4445558;32;20116;-68
2023/01/09 08:08:48;;;;;;;27.20;12.07;;;;;;;6.58;100.00;97818.84;4446237;32;20908;-68
2023/01/09 08:11:16;;;;;;;23.73;12.77;;;;;;;6.62;100.00;97829.81;4447023;32;20127;-68
2023/01/09 08:13:43;;;;;;;26.65;12.98;;;;;;;6.60;100.00;97845.56;4445114;32;20151;-67
2023/01/09 08:16:10;;;;;;;24.58;12.10;;;;;;;6.67;100.00;97848.44;4451654;32;20131;-68
2023/01/09 08:18:37;;;;;;;26.37;12.63;;;;;;;6.42;100.00;97824.59;4448302;32;20147;-69
2023/01/09 08:21:04;;;;;;;22.35;12.18;;;;;;;6.33;100.00;97831.41;4448965;32;20119;-69
2023/01/09 08:23:31;;;;;;;23.80;11.25;;;;;;;6.14;100.00;97824.38;4445494;32;20101;-68
2023/01/09 08:25:59;;;;;;;21.60;11.57;;;;;;;6.29;100.00;97824.00;4448088;32;20469;-67
2023/01/09 08:28:26;;;;;;;24.80;12.23;;;;;;;6.08;100.00;97822.28;4452029;32;20101;-68
2023/01/09 08:30:53;;;;;;;24.42;12.30;;;;;;;6.01;100.00;97821.16;4450905;32;20109;-67
2023/01/09 08:33:20;;;;;;;25.95;12.05;;;;;;;5.93;100.00;97807.97;4447360;32;20093;-66
2023/01/09 08:35:47;;;;;;;27.37;12.27;;;;;;;5.93;100.00;97813.19;4447991;32;20106;-68
2023/01/09 08:38:15;;;;;;;21.70;11.80;;;;;;;5.97;100.00;97815.41;4442607;32;20571;-70
2023/01/09 08:40:45;;;;;;;24.05;13.40;;;;;;;5.87;100.00;97815.38;4449678;32;20152;-69
2023/01/09 08:48:47;;;;;;;24.58;13.15;;;;;;;5.98;100.00;97819.69;4447300;32;20092;-67
2023/01/09 08:51:15;;;;;;;22.55;11.82;;;;;;;5.97;100.00;97827.59;4436629;32;20124;-68
2023/01/09 08:53:42;;;;;;;19.98;11.18;;;;;;;5.97;100.00;97809.41;4448006;32;20097;-67
2023/01/09 08:56:11;;;;;;;25.05;11.75;;;;;;;5.93;100.00;97810.59;4448022;32;20488;-68
2023/01/09 08:58:39;;;;;;;26.05;11.73;;;;;;;5.91;100.00;97799.50;4451192;32;20189;-68
2023/01/09 09:01:07;;;;;;;24.52;12.93;;;;;;;6.08;100.00;97796.28;4450609;32;20135;-68
2023/01/09 09:03:37;;;;;;;25.48;12.77;;;;;;;6.00;100.00;97796.97;4443808;32;20482;-69
2023/01/09 09:06:05;;;;;;;24.10;12.30;;;;;;;5.75;100.00;97798.19;4451512;32;20109;-66
2023/01/09 09:08:35;;;;;;;25.05;12.37;;;;;;;5.84;100.00;97792.25;4450287;32;20145;-68
2023/01/09 09:11:02;;;;;;;21.90;12.02;;;;;;;5.81;100.00;97789.91;4450101;32;20233;-67
2023/01/09 09:13:29;;;;;;;22.17;11.55;;;;;;;5.92;100.00;97793.34;4433966;32;20101;-68
2023/01/09 09:15:57;;;;;;;22.98;11.80;;;;;;;5.79;100.00;97780.59;4437263;32;20144;-68
2023/01/09 09:18:24;;;;;;;26.10;12.35;;;;;;;5.76;100.00;97780.84;4449628;32;20155;-69
2023/01/09 09:20:51;;;;;;;21.35;11.68;;;;;;;5.79;100.00;97777.97;4451924;32;20148;-68
2023/01/09 09:23:18;;;;;;;26.85;12.93;;;;;;;5.93;100.00;97787.19;4446511;32;20579;-68
2023/01/09 09:25:45;;;;;;;26.40;12.23;;;;;;;5.83;100.00;97785.38;4447070;32;20127;-68
2023/01/09 09:28:13;;;;;;;23.33;12.98;;;;;;;5.69;100.00;97783.13;4452339;32;20855;-68
2023/01/09 09:30:41;;;;;;;32.95;15.68;;;;;;;5.60;100.00;97776.13;4450309;32;20127;-66
2023/01/09 09:33:08;;;;;;;39.55;14.82;;;;;;;5.50;100.00;97774.31;4443874;32;20159;-68
2023/01/09 09:35:36;;;;;;;36.67;15.00;;;;;;;5.49;100.00;97775.25;4442997;32;20202;-69
2023/01/09 09:38:04;;;;;;;31.90;14.93;;;;;;;5.67;100.00;97774.66;4450299;32;20089;-69
2023/01/09 09:40:59;;;;;;;31.62;14.30;;;;;;;5.70;100.00;97776.97;4448940;32;20119;-70
2023/01/09 09:47:21;;;;;;;26.95;13.70;;;;;;;5.62;100.00;97769.03;4397100;32;20173;-67
2023/01/09 09:50:00;;;;;;;33.63;14.23;;;;;;;5.51;100.00;97773.34;4399316;32;20117;-67
2023/01/09 09:52:37;;;;;;;22.77;11.95;;;;;;;5.49;100.00;97754.47;4400794;32;20117;-66
2023/01/09 09:55:17;;;;;;;24.30;12.68;;;;;;;5.51;100.00;97773.34;4398185;32;20582;-66
2023/01/09 09:57:46;;;;;;;29.95;14.85;;;;;;;5.67;100.00;97772.88;4376670;32;20127;-68
2023/01/09 10:00:19;;;;;;;36.38;15.35;;;;;;;5.66;100.00;97776.44;4388570;32;20133;-66
2023/01/09 10:03:01;;;;;;;30.42;12.77;;;;;;;5.41;100.00;97772.47;4398102;32;20112;-67
2023/01/09 10:05:40;;;;;;;25.70;13.60;;;;;;;5.46;100.00;97764.31;4400226;32;20638;-67
2023/01/09 10:08:37;;;;;;;30.65;15.50;;;;;;;5.48;100.00;97762.38;4396321;32;20216;-66
2023/01/09 10:11:12;;;;;;;31.95;14.70;;;;;;;5.54;100.00;97766.25;4388235;32;20098;-67
2023/01/09 10:16:39;;;;;;;24.98;13.00;;;;;;;5.66;100.00;97762.59;4391774;32;20121;-64
2023/01/09 10:19:15;;;;;;;22.27;12.35;;;;;;;5.74;100.00;97760.19;4396683;32;20162;-66
2023/01/09 10:22:16;;;;;;;30.08;12.52;;;;;;;5.46;100.00;97746.94;4398584;32;20257;-66
2023/01/09 10:25:08;;;;;;;26.10;13.73;;;;;;;5.61;100.00;97754.38;4441537;32;20836;-65
2023/01/09 10:27:50;;;;;;;26.00;13.20;;;;;;;5.71;100.00;97744.87;4434320;32;20118;-66
2023/01/09 10:30:36;;;;;;;29.25;13.93;;;;;;;5.75;100.00;97742.81;4437935;32;20143;-66
2023/01/09 10:33:29;;;;;;;30.20;13.75;;;;;;;5.82;100.00;97755.13;4439371;32;20101;-66
2023/01/09 10:36:20;;;;;;;29.98;13.93;;;;;;;5.72;100.00;97717.91;4449724;32;20775;-65
2023/01/09 10:38:50;;;;;;;29.50;14.38;;;;;;;5.71;100.00;97726.66;4431794;32;20134;-66
2023/01/09 10:41:27;;;;;;;31.42;14.10;;;;;;;5.66;100.00;97723.63;4432083;32;20093;-65
2023/01/09 10:44:11;;;;;;;25.48;12.60;;;;;;;5.55;100.00;97721.13;4420710;32;20135;-67
2023/01/09 10:46:50;;;;;;;;;;;;;;;5.64;100.00;97704.75;4435631;32;20155;-67
2023/01/09 10:49:21;;;;;;;26.23;13.30;;;;;;;5.64;100.00;97705.56;4431534;32;20817;-67
2023/01/09 10:51:50;;;;;;;29.00;15.13;;;;;;;5.68;100.00;97700.94;4427746;32;20415;-66
2023/01/09 10:54:21;;;;;;;29.70;13.73;;;;;;;5.57;100.00;97685.44;4445665;32;20096;-67
2023/01/09 10:57:11;;;;;;;28.08;14.65;;;;;;;5.56;100.00;97681.22;4449860;32;20085;-66
2023/01/09 10:59:39;;;;;;;32.80;15.60;;;;;;;5.49;100.00;97678.31;4373175;32;20170;-66
2023/01/09 11:02:31;;;;;;;30.35;16.17;;;;;;;5.49;100.00;97670.53;4375929;32;20110;-66
2023/01/09 11:04:58;;;;;;;26.73;14.60;;;;;;;5.60;100.00;97673.03;4391131;32;20196;-66
2023/01/09 11:07:29;;;;;;;29.67;15.48;;;;;;;5.59;100.00;97668.78;4402420;32;20121;-65
2023/01/09 11:09:58;;;;;;;33.30;15.70;;;;;;;5.49;100.00;97668.75;4383723;32;20711;-66
2023/01/09 11:12:31;;;;;;;29.87;15.68;;;;;;;5.50;100.00;97661.78;4401250;32;20106;-65
2023/01/09 11:15:15;;;;;;;34.35;16.60;;;;;;;5.53;100.00;97673.66;4402551;32;20110;-66
2023/01/09 11:17:43;;;;;;;30.20;14.65;;;;;;;5.46;100.00;97670.78;4403197;32;20440;-66
2023/01/09 11:20:28;;;;;;;40.38;17.80;;;;;;;5.46;100.00;97660.41;4403594;32;20106;-67
2023/01/09 11:22:57;;;;;;;35.60;17.77;;;;;;;5.30;100.00;97673.91;4398358;32;20110;-66
2023/01/09 11:25:28;;;;;;;38.88;17.00;;;;;;;5.38;100.00;97671.44;4402010;32;20113;-66
2023/01/09 11:28:04;;;;;;;34.70;16.95;;;;;;;5.30;100.00;97664.31;4397630;32;20136;-66
2023/01/09 11:30:35;;;;;;;32.83;16.00;;;;;;;5.39;100.00;97654.94;4400510;32;20535;-64
2023/01/09 11:33:18;;;;;;;37.65;17.77;;;;;;;5.37;100.00;97656.81;4398705;32;20190;-66
2023/01/09 11:36:13;;;;;;;28.23;14.70;;;;;;;5.56;100.00;97650.88;4392868;32;20489;-66
2023/01/09 11:39:01;;;;;;;32.70;15.35;;;;;;;5.36;100.00;97644.81;4432781;32;20368;-66
2023/01/09 11:41:33;;;;;;;37.42;18.45;;;;;;;5.42;100.00;97649.47;4428823;32;20172;-67
2023/01/09 11:44:02;;;;;;;36.08;16.80;;;;;;;5.40;100.00;97651.34;4435209;32;20197;-67
2023/01/09 11:46:36;;;;;;;34.40;17.62;;;;;;;5.53;100.00;97650.28;4433610;32;20093;-67
2023/01/09 11:49:04;;;;;;;;;;;;;;;5.58;100.00;97658.53;4432250;32;20205;-65
2023/01/09 11:51:34;;;;;;;34.35;16.40;;;;;;;5.56;100.00;97653.47;4434014;32;19973;-66
2023/01/09 11:54:13;;;;;;;36.20;18.25;;;;;;;5.65;100.00;97649.25;4434778;32;20500;-66
2023/01/09 11:56:41;;;;;;;34.72;16.67;;;;;;;5.61;100.00;97647.88;4434369;32;20097;-66